createdAt,value
2023-03-24T00:01:54.420Z,9.73
2023-03-24T00:04:42.642Z,9.00
2023-03-24T00:07:30.514Z,9.60
2023-03-24T00:10:19.255Z,7.03
2023-03-24T00:13:04.573Z,10.32
2023-03-24T00:15:49.755Z,7.78
2023-03-24T00:18:36.879Z,6.97
2023-03-24T00:21:26.302Z,8.93
2023-03-24T00:24:12.668Z,8.13
2023-03-24T00:26:57.806Z,9.70
2023-03-24T00:29:44.084Z,8.13
2023-03-24T00:32:30.292Z,6.88
2023-03-24T00:35:17.731Z,10.43
2023-03-24T00:38:03.892Z,9.07
2023-03-24T00:40:50.369Z,6.75
2023-03-24T00:43:35.796Z,6.78
2023-03-24T00:46:30.201Z,8.55
2023-03-24T00:49:17.055Z,9.65
2023-03-24T00:52:09.863Z,7.93
2023-03-24T00:54:58.038Z,6.53
2023-03-24T00:57:51.537Z,7.97
2023-03-24T01:00:42.465Z,6.85
2023-03-24T01:03:27.995Z,6.97
2023-03-24T01:06:13.869Z,6.75
2023-03-24T01:08:59.254Z,7.35
2023-03-24T01:11:45.277Z,9.25
2023-03-24T01:14:32.265Z,7.53
2023-03-24T01:17:19.343Z,8.35
2023-03-24T01:20:08.121Z,9.32
2023-03-24T01:22:53.548Z,6.57
2023-03-24T01:25:39.894Z,8.07
2023-03-24T01:28:25.835Z,7.47
2023-03-24T01:31:11.889Z,5.43
2023-03-24T01:33:57.380Z,7.85
2023-03-24T01:36:42.881Z,9.95
2023-03-24T01:39:28.365Z,8.02
2023-03-24T01:42:22.961Z,6.93
2023-03-24T01:45:36.354Z,6.75
2023-03-24T01:48:33.837Z,5.55
2023-03-24T01:51:41.617Z,5.70
2023-03-24T01:54:33.685Z,7.20
2023-03-24T01:57:29.266Z,6.40
2023-03-24T02:00:18.476Z,6.72
2023-03-24T02:03:25.242Z,8.52
2023-03-24T02:06:15.507Z,8.45
2023-03-24T02:09:01.764Z,9.57
2023-03-24T02:11:48.164Z,7.47
2023-03-24T02:14:33.764Z,6.60
2023-03-24T02:17:25.040Z,5.55
2023-03-24T02:20:25.131Z,6.15
2023-03-24T02:23:33.766Z,6.72
2023-03-24T02:26:39.654Z,3.97
2023-03-24T02:30:04.303Z,6.60
2023-03-24T02:33:05.287Z,6.75
2023-03-24T02:36:24.954Z,6.60
2023-03-24T02:39:41.800Z,5.57
2023-03-24T02:42:52.315Z,5.85
2023-03-24T02:45:50.440Z,5.53
2023-03-24T02:49:01.043Z,5.72
2023-03-24T02:51:56.179Z,6.65
2023-03-24T02:54:50.072Z,7.05
2023-03-24T02:57:57.242Z,7.40
2023-03-24T03:01:15.724Z,11.30
2023-03-24T03:04:32.968Z,8.87
2023-03-24T03:07:25.034Z,8.90
2023-03-24T03:10:22.687Z,6.35
2023-03-24T03:13:18.247Z,7.60
2023-03-24T03:16:13.633Z,7.63
2023-03-24T03:19:03.457Z,6.97
2023-03-24T03:21:50.637Z,8.45
2023-03-24T03:24:39.940Z,6.68
2023-03-24T03:27:38.830Z,7.90
2023-03-24T03:30:45.299Z,7.60
2023-03-24T03:33:40.579Z,7.63
2023-03-24T03:36:30.392Z,8.85
2023-03-24T03:39:31.117Z,11.23
2023-03-24T03:42:19.699Z,7.57
2023-03-24T03:45:08.274Z,9.43
2023-03-24T03:47:54.379Z,8.43
2023-03-24T03:50:39.877Z,8.93
2023-03-24T03:53:33.075Z,9.80
2023-03-24T03:56:22.658Z,7.03
2023-03-24T03:59:33.977Z,9.85
2023-03-24T04:02:40.272Z,8.45
2023-03-24T04:05:51.734Z,7.78
2023-03-24T04:09:24.201Z,8.93
2023-03-24T04:12:09.481Z,11.15
2023-03-24T04:15:31.902Z,11.32
2023-03-24T04:19:00.306Z,9.10
2023-03-24T04:21:58.347Z,8.68
2023-03-24T04:24:54.655Z,10.10
2023-03-24T04:27:57.022Z,8.18
2023-03-24T04:30:56.015Z,8.27
2023-03-24T04:33:46.301Z,9.38
2023-03-24T04:36:56.852Z,6.60
2023-03-24T04:39:47.952Z,13.40
2023-03-24T04:42:39.584Z,8.27
2023-03-24T04:45:25.663Z,9.48
2023-03-24T04:48:37.026Z,17.90
2023-03-24T04:54:23.165Z,8.93
2023-03-24T04:57:12.708Z,14.63
2023-03-24T05:00:07.734Z,17.17
2023-03-24T05:02:53.744Z,9.23
2023-03-24T05:05:48.306Z,12.82
2023-03-24T05:08:33.904Z,11.90
2023-03-24T05:11:21.112Z,14.15
2023-03-24T05:14:16.876Z,16.20
2023-03-24T05:17:02.761Z,12.45
2023-03-24T05:19:48.062Z,15.43
2023-03-24T05:22:33.597Z,13.85
2023-03-24T05:25:20.077Z,15.52
2023-03-24T05:28:05.724Z,12.57
2023-03-24T05:30:52.201Z,12.70
2023-03-24T05:34:00.148Z,14.52
2023-03-24T05:36:47.075Z,19.25
2023-03-24T05:39:34.490Z,17.70
2023-03-24T05:42:25.181Z,17.30
2023-03-24T05:45:11.833Z,19.15
2023-03-24T05:47:57.412Z,18.63
2023-03-24T05:50:55.066Z,21.23
2023-03-24T05:53:41.079Z,23.08
2023-03-24T05:56:35.853Z,19.85
2023-03-24T05:59:22.677Z,23.35
2023-03-24T06:02:26.896Z,16.05
2023-03-24T06:05:21.396Z,18.92
2023-03-24T06:08:06.765Z,13.20
2023-03-24T06:11:00.366Z,22.65
2023-03-24T06:13:45.801Z,19.35
2023-03-24T06:16:33.982Z,18.45
2023-03-24T06:19:22.562Z,18.77
2023-03-24T06:22:26.842Z,21.65
2023-03-24T06:25:16.535Z,19.17
2023-03-24T06:28:12.131Z,19.95
2023-03-24T06:30:58.760Z,22.95
2023-03-24T06:33:53.621Z,16.65
2023-03-24T06:36:38.993Z,18.65
2023-03-24T06:39:26.276Z,14.23
2023-03-24T06:42:11.955Z,21.27
2023-03-24T06:44:57.262Z,21.65
2023-03-24T06:47:42.953Z,21.55
2023-03-24T06:50:33.020Z,17.38
2023-03-24T06:53:23.255Z,18.90
2023-03-24T06:56:08.604Z,19.98
2023-03-24T06:59:00.394Z,22.73
2023-03-24T07:01:53.201Z,16.90
2023-03-24T07:04:45.687Z,19.63
2023-03-24T07:10:50.628Z,19.02
2023-03-24T07:13:36.162Z,16.10
2023-03-24T07:16:23.674Z,20.58
2023-03-24T07:19:18.176Z,19.90
2023-03-24T07:22:08.471Z,12.27
2023-03-24T07:25:09.613Z,24.42
2023-03-24T07:28:02.153Z,20.15
2023-03-24T07:30:47.639Z,16.10
2023-03-24T07:33:33.367Z,16.15
2023-03-24T07:36:18.934Z,18.17
2023-03-24T07:39:05.059Z,16.67
2023-03-24T07:41:53.368Z,17.55
2023-03-24T07:44:55.030Z,19.52
2023-03-24T07:47:45.069Z,20.20
2023-03-24T07:50:31.367Z,17.08
2023-03-24T07:53:19.957Z,19.60
2023-03-24T07:56:05.839Z,18.30
2023-03-24T07:58:51.620Z,23.45
2023-03-24T08:01:46.606Z,15.05
2023-03-24T08:04:33.453Z,20.35
2023-03-24T08:07:24.523Z,17.25
2023-03-24T08:10:11.677Z,17.08
2023-03-24T08:12:57.885Z,17.00
2023-03-24T08:15:43.483Z,16.38
2023-03-24T08:18:28.697Z,17.52
2023-03-24T08:21:14.009Z,23.77
2023-03-24T08:23:59.551Z,18.20
2023-03-24T08:26:46.517Z,15.13
2023-03-24T08:29:34.694Z,16.08
2023-03-24T08:32:19.902Z,17.05
2023-03-24T08:35:06.079Z,15.15
2023-03-24T08:37:52.627Z,16.75
2023-03-24T08:40:40.350Z,14.93
2023-03-24T08:43:26.145Z,15.43
2023-03-24T08:46:13.679Z,15.27
2023-03-24T08:49:00.416Z,16.45
2023-03-24T08:51:46.345Z,10.73
2023-03-24T08:54:31.376Z,14.00
2023-03-24T08:57:17.837Z,13.38
2023-03-24T09:00:10.467Z,20.15
2023-03-24T09:02:56.806Z,15.93
2023-03-24T09:05:44.790Z,14.85
2023-03-24T09:08:31.506Z,12.75
2023-03-24T09:11:19.062Z,16.70
2023-03-24T09:14:04.514Z,13.35
2023-03-24T09:16:50.260Z,14.75
2023-03-24T09:19:35.499Z,17.23
2023-03-24T09:22:21.163Z,12.15
2023-03-24T09:25:07.729Z,17.00
2023-03-24T09:27:53.103Z,15.80
2023-03-24T09:30:38.317Z,9.57
2023-03-24T09:33:24.126Z,15.13
2023-03-24T09:36:10.509Z,12.30
2023-03-24T09:38:55.695Z,13.15
2023-03-24T09:41:44.231Z,7.53
2023-03-24T09:44:46.027Z,13.88
2023-03-24T09:47:41.942Z,13.00
2023-03-24T09:50:29.600Z,11.95
2023-03-24T09:53:38.224Z,11.05
2023-03-24T09:56:25.737Z,15.68
2023-03-24T09:59:21.244Z,11.02
2023-03-24T10:02:16.228Z,9.88
2023-03-24T10:05:01.708Z,9.15
2023-03-24T10:07:56.904Z,13.43
2023-03-24T10:11:01.302Z,12.07
2023-03-24T10:14:17.663Z,15.15
2023-03-24T10:17:12.278Z,15.93
2023-03-24T10:20:32.045Z,16.70
2023-03-24T10:23:31.796Z,19.27
2023-03-24T10:26:44.549Z,13.93
2023-03-24T10:29:33.041Z,14.57
2023-03-24T10:32:26.498Z,15.35
2023-03-24T10:35:21.018Z,14.38
2023-03-24T10:38:16.961Z,12.20
2023-03-24T10:41:02.688Z,11.52
2023-03-24T10:43:51.687Z,11.65
2023-03-24T10:46:44.223Z,13.10
2023-03-24T10:49:30.225Z,10.07
2023-03-24T10:52:15.555Z,12.32
2023-03-24T10:55:06.291Z,11.85
2023-03-24T10:57:56.403Z,13.65
2023-03-24T11:00:45.185Z,12.15
2023-03-24T11:03:32.662Z,12.70
2023-03-24T11:06:21.139Z,10.75
2023-03-24T11:09:21.119Z,13.80
2023-03-24T11:12:22.115Z,9.60
2023-03-24T11:15:23.505Z,9.60
2023-03-24T11:18:12.208Z,12.57
2023-03-24T11:21:04.054Z,8.55
2023-03-24T11:23:49.959Z,13.43
2023-03-24T11:26:38.261Z,11.75
2023-03-24T11:29:25.602Z,15.52
2023-03-24T11:32:20.704Z,13.57
2023-03-24T11:35:08.994Z,16.60
2023-03-24T11:37:54.394Z,13.10
2023-03-24T11:40:54.003Z,11.52
2023-03-24T11:43:39.412Z,15.50
2023-03-24T11:46:26.590Z,12.20
2023-03-24T11:49:15.867Z,10.07
2023-03-24T11:52:04.341Z,12.27
2023-03-24T11:54:49.704Z,16.83
2023-03-24T11:58:06.246Z,10.35
2023-03-24T12:01:05.207Z,10.32
2023-03-24T12:03:56.978Z,10.38
2023-03-24T12:07:11.243Z,10.18
2023-03-24T12:10:06.188Z,6.45
2023-03-24T12:13:16.028Z,12.13
2023-03-24T12:16:40.372Z,8.05
2023-03-24T12:19:46.854Z,11.40
2023-03-24T12:23:01.167Z,12.43
2023-03-24T12:26:16.900Z,10.30
2023-03-24T12:29:08.034Z,9.57
2023-03-24T12:32:04.810Z,8.98
2023-03-24T12:35:20.331Z,8.27
2023-03-24T12:38:30.364Z,10.45
2023-03-24T12:41:39.252Z,8.93
2023-03-24T12:44:43.082Z,8.10
2023-03-24T12:47:58.797Z,12.48
2023-03-24T12:51:25.816Z,7.53
2023-03-24T12:54:29.839Z,9.27
2023-03-24T12:57:19.426Z,5.68
2023-03-24T13:00:33.025Z,7.93
2023-03-24T13:03:25.784Z,11.68
2023-03-24T13:06:19.394Z,11.23
2023-03-24T13:09:08.511Z,11.63
2023-03-24T13:12:13.221Z,8.00
2023-03-24T13:15:22.599Z,11.00
2023-03-24T13:18:11.039Z,15.20
2023-03-24T13:21:04.407Z,13.40
2023-03-24T13:24:12.133Z,11.35
2023-03-24T13:27:14.813Z,11.43
2023-03-24T13:30:15.721Z,10.15
2023-03-24T13:33:06.651Z,11.18
2023-03-24T13:35:53.577Z,11.77
2023-03-24T13:38:44.616Z,13.75
2023-03-24T13:41:34.957Z,9.63
2023-03-24T13:44:23.655Z,8.20
2023-03-24T13:47:12.762Z,8.50
2023-03-24T13:50:02.210Z,7.68
2023-03-24T13:52:49.663Z,9.57
2023-03-24T13:55:38.093Z,5.28
2023-03-24T13:58:44.105Z,9.45
2023-03-24T14:01:44.003Z,8.63
2023-03-24T14:04:42.790Z,9.82
2023-03-24T14:07:41.758Z,12.18
2023-03-24T14:10:36.429Z,6.07
2023-03-24T14:13:22.113Z,7.18
2023-03-24T14:16:47.659Z,8.23
2023-03-24T14:19:40.426Z,13.32
2023-03-24T14:22:39.757Z,9.15
2023-03-24T14:25:32.966Z,10.30
2023-03-24T14:28:37.416Z,8.98
2023-03-24T14:31:48.834Z,13.80
2023-03-24T14:34:37.493Z,7.15
2023-03-24T14:37:23.792Z,10.32
2023-03-24T14:40:29.504Z,12.02
2023-03-24T14:43:24.649Z,9.25
2023-03-24T14:46:22.211Z,9.30
2023-03-24T14:49:23.491Z,9.30
2023-03-24T14:52:30.637Z,7.90
2023-03-24T14:55:19.390Z,9.00
2023-03-24T14:58:35.654Z,9.18
2023-03-24T15:01:26.585Z,9.20
2023-03-24T15:04:13.622Z,9.55
2023-03-24T15:07:03.715Z,8.02
2023-03-24T15:09:50.313Z,7.13
2023-03-24T15:12:36.578Z,6.82
2023-03-24T15:15:23.562Z,7.50
2023-03-24T15:18:17.844Z,4.88
2023-03-24T15:21:23.658Z,5.40
2023-03-24T15:24:21.119Z,6.95
2023-03-24T15:27:06.554Z,9.27
2023-03-24T15:29:59.175Z,8.32
2023-03-24T15:32:46.132Z,8.60
2023-03-24T15:35:34.148Z,10.68
2023-03-24T15:38:27.440Z,13.82
2023-03-24T15:41:15.624Z,9.25
2023-03-24T15:44:01.011Z,11.68
2023-03-24T15:46:47.284Z,10.18
2023-03-24T15:49:35.568Z,10.27
2023-03-24T15:52:31.400Z,7.28
2023-03-24T15:55:28.556Z,12.48
2023-03-24T15:58:28.486Z,7.10
2023-03-24T16:01:18.004Z,10.10
2023-03-24T16:04:11.779Z,8.35
2023-03-24T16:06:57.849Z,8.82
2023-03-24T16:09:44.869Z,8.85
2023-03-24T16:12:30.223Z,7.78
2023-03-24T16:15:15.782Z,7.38
2023-03-24T16:18:01.101Z,8.15
2023-03-24T16:20:46.703Z,8.18
2023-03-24T16:23:32.385Z,7.75
2023-03-24T16:26:23.626Z,6.57
2023-03-24T16:29:21.723Z,7.30
2023-03-24T16:32:08.725Z,9.05
2023-03-24T16:34:53.917Z,10.73
2023-03-24T16:37:39.486Z,8.52
2023-03-24T16:40:50.677Z,11.82
2023-03-24T16:43:36.307Z,9.82
2023-03-24T16:46:31.533Z,8.70
2023-03-24T16:49:18.330Z,7.57
2023-03-24T16:52:04.213Z,10.27
2023-03-24T16:54:50.451Z,6.25
2023-03-24T16:57:37.453Z,9.30
2023-03-24T17:00:24.468Z,5.47
2023-03-24T17:03:10.371Z,9.82
2023-03-24T17:05:57.575Z,8.43
2023-03-24T17:08:45.052Z,9.50
2023-03-24T17:11:34.013Z,7.82
2023-03-24T17:14:19.676Z,7.13
2023-03-24T17:17:10.735Z,9.52
2023-03-24T17:19:57.966Z,8.68
2023-03-24T17:22:45.278Z,6.63
2023-03-24T17:25:30.458Z,7.88
2023-03-24T17:28:17.369Z,12.15
2023-03-24T17:31:03.333Z,6.90
2023-03-24T17:33:48.679Z,7.88
2023-03-24T17:36:34.221Z,8.00
2023-03-24T17:39:21.537Z,5.00
2023-03-24T17:42:06.808Z,7.82
2023-03-24T17:44:52.215Z,4.88
2023-03-24T17:47:38.401Z,8.68
2023-03-24T17:50:25.322Z,8.13
2023-03-24T17:53:13.421Z,6.43
2023-03-24T17:56:05.590Z,7.32
2023-03-24T17:58:54.454Z,6.68
2023-03-24T18:01:40.441Z,7.72
2023-03-24T18:04:26.235Z,4.70
2023-03-24T18:07:11.769Z,8.57
2023-03-24T18:09:57.382Z,7.95
2023-03-24T18:12:42.521Z,10.27
2023-03-24T18:15:28.069Z,7.80
2023-03-24T18:18:13.509Z,5.18
2023-03-24T18:20:58.965Z,9.73
2023-03-24T18:23:46.202Z,11.20
2023-03-24T18:26:31.423Z,7.05
2023-03-24T18:29:17.135Z,6.00
2023-03-24T18:32:04.347Z,10.55
2023-03-24T18:34:50.734Z,10.50
2023-03-24T18:37:36.230Z,7.72
2023-03-24T18:40:21.461Z,6.47
2023-03-24T18:43:06.999Z,8.50
2023-03-24T18:45:52.348Z,7.72
2023-03-24T18:48:39.336Z,4.38
2023-03-24T18:51:25.785Z,8.90
2023-03-24T18:54:12.753Z,7.20
2023-03-24T18:56:58.452Z,11.13
2023-03-24T18:59:43.758Z,8.88
2023-03-24T19:02:29.504Z,7.72
2023-03-24T19:05:15.268Z,9.60
2023-03-24T19:08:01.579Z,6.20
2023-03-24T19:10:47.613Z,6.57
2023-03-24T19:13:33.818Z,9.43
2023-03-24T19:16:20.055Z,7.15
2023-03-24T19:19:06.694Z,8.98
2023-03-24T19:21:52.025Z,8.95
2023-03-24T19:24:37.676Z,7.60
2023-03-24T19:27:23.558Z,8.85
2023-03-24T19:30:09.481Z,7.07
2023-03-24T19:32:55.717Z,6.97
2023-03-24T19:35:41.273Z,10.38
2023-03-24T19:38:27.084Z,10.13
2023-03-24T19:41:13.997Z,10.20
2023-03-24T19:43:59.375Z,12.80
2023-03-24T19:46:45.119Z,11.07
2023-03-24T19:49:30.453Z,8.98
2023-03-24T19:52:16.348Z,9.48
2023-03-24T19:55:02.023Z,9.85
2023-03-24T19:57:47.342Z,10.68
2023-03-24T20:00:32.984Z,13.30
2023-03-24T20:03:18.511Z,10.70
2023-03-24T20:06:08.815Z,11.18
2023-03-24T20:08:54.404Z,11.05
2023-03-24T20:11:40.769Z,12.70
2023-03-24T20:14:26.510Z,10.70
2023-03-24T20:17:18.859Z,10.60
2023-03-24T20:20:07.172Z,9.55
2023-03-24T20:22:52.568Z,11.13
2023-03-24T20:25:44.186Z,13.40
2023-03-24T20:28:29.915Z,8.57
2023-03-24T20:31:15.430Z,8.80
2023-03-24T20:34:00.856Z,8.20
2023-03-24T20:36:46.418Z,10.90
2023-03-24T20:39:32.191Z,7.68
2023-03-24T20:42:20.185Z,10.05
2023-03-24T20:45:10.811Z,7.72
2023-03-24T20:47:56.549Z,10.52
2023-03-24T20:50:41.663Z,11.40
2023-03-24T20:53:27.835Z,13.00
2023-03-24T20:56:14.989Z,12.93
2023-03-24T20:59:01.107Z,12.20
2023-03-24T21:01:48.408Z,7.57
2023-03-24T21:04:34.138Z,8.70
2023-03-24T21:07:19.567Z,9.80
2023-03-24T21:10:06.511Z,12.02
2023-03-24T21:12:53.261Z,13.02
2023-03-24T21:15:44.408Z,12.35
2023-03-24T21:18:32.347Z,11.95
2023-03-24T21:21:17.761Z,12.85
2023-03-24T21:24:04.258Z,12.68
2023-03-24T21:26:50.807Z,9.93
2023-03-24T21:29:36.552Z,11.85
2023-03-24T21:32:21.706Z,10.13
2023-03-24T21:35:08.999Z,11.80
2023-03-24T21:37:54.499Z,15.48
2023-03-24T21:40:39.738Z,15.25
2023-03-24T21:43:27.156Z,16.67
2023-03-24T21:46:14.920Z,13.43
2023-03-24T21:49:00.932Z,21.02
2023-03-24T21:51:46.657Z,15.48
2023-03-24T21:54:33.416Z,17.83
2023-03-24T21:57:19.908Z,13.13
2023-03-24T22:00:11.195Z,10.63
2023-03-24T22:02:58.059Z,13.98
2023-03-24T22:05:44.218Z,10.15
2023-03-24T22:08:30.489Z,15.98
2023-03-24T22:11:18.371Z,13.50
2023-03-24T22:14:04.202Z,12.95
2023-03-24T22:16:49.788Z,10.90
2023-03-24T22:19:35.386Z,11.98
2023-03-24T22:22:20.768Z,16.63
2023-03-24T22:25:08.402Z,13.98
2023-03-24T22:27:55.955Z,10.10
2023-03-24T22:30:41.530Z,13.18
2023-03-24T22:33:26.962Z,12.98
2023-03-24T22:36:12.277Z,11.45
2023-03-24T22:38:57.809Z,12.82
2023-03-24T22:41:43.784Z,13.85
2023-03-24T22:44:31.815Z,13.32
2023-03-24T22:47:17.067Z,14.45
2023-03-24T22:50:02.556Z,12.98
2023-03-24T22:52:47.998Z,14.20
2023-03-24T22:55:33.545Z,15.65
2023-03-24T22:58:18.890Z,15.38
2023-03-24T23:01:06.093Z,12.02
2023-03-24T23:03:51.806Z,14.45
2023-03-24T23:06:37.294Z,11.70
2023-03-24T23:09:23.445Z,14.27
2023-03-24T23:12:09.564Z,12.32
2023-03-24T23:14:54.795Z,14.07
2023-03-24T23:17:42.600Z,13.48
2023-03-24T23:20:28.318Z,16.08
2023-03-24T23:23:15.399Z,20.77
2023-03-24T23:26:01.361Z,18.40
2023-03-24T23:28:47.767Z,18.10
2023-03-24T23:31:35.569Z,10.68
2023-03-24T23:34:21.373Z,15.75
2023-03-24T23:37:06.574Z,14.60
2023-03-24T23:39:52.172Z,13.20
2023-03-24T23:42:38.277Z,10.43
2023-03-24T23:45:23.909Z,13.05
2023-03-24T23:48:09.185Z,17.88
2023-03-24T23:51:03.785Z,16.35
2023-03-24T23:53:49.099Z,16.52
2023-03-24T23:56:37.091Z,18.17
2023-03-24T23:59:22.514Z,15.55
